Time;durP1;ratioP1;P1;durP2;ratioP2;P2;SDS_P1;SDS_P2;PMS_P1;PMS_P2;Temp;Humidity;BMP_temperature;BMP_pressure;BME280_temperature;BME280_humidity;BME280_pressure;Samples;Min_cycle;Max_cycle;Signal;HPM_P1;HPM_P2
2023/04/28 00:00:30;;;;;;;7.50;1.73;;;;;;;16.39;100.00;100956.84;2067821;28;20064;-74
2023/04/28 00:01:51;;;;;;;9.07;1.75;;;;;;;16.41;100.00;100963.94;2059617;28;20085;-74
2023/04/28 00:03:14;;;;;;;7.53;1.70;;;;;;;16.43;100.00;100950.59;2064867;28;20050;-74
2023/04/28 00:04:36;;;;;;;7.97;1.60;;;;;;;16.45;100.00;100960.38;2075666;28;20425;-74
2023/04/28 00:05:58;;;;;;;12.57;2.58;;;;;;;16.45;100.00;100963.03;2070029;28;20080;-74
2023/04/28 00:07:20;;;;;;;9.05;1.98;;;;;;;16.44;100.00;100950.59;2067544;28;20042;-75
2023/04/28 00:08:43;;;;;;;10.40;1.90;;;;;;;16.42;100.00;100955.03;2082187;28;20532;-74
2023/04/28 00:10:06;;;;;;;11.65;2.10;;;;;;;16.44;100.00;100955.03;2072506;28;20046;-74
2023/04/28 00:11:28;;;;;;;8.55;2.33;;;;;;;16.46;100.00;100943.50;2074159;28;20136;-75
2023/04/28 00:12:50;;;;;;;8.27;2.03;;;;;;;16.47;100.00;100934.63;2083663;28;20520;-74
2023/04/28 00:14:14;;;;;;;7.53;1.92;;;;;;;16.48;100.00;100947.03;2085955;28;20037;-74
2023/04/28 00:15:36;;;;;;;8.13;1.95;;;;;;;16.47;100.00;100936.41;2086808;28;20600;-74
2023/04/28 00:16:59;;;;;;;12.15;2.25;;;;;;;16.46;100.00;100954.16;2086337;28;20103;-75
2023/04/28 00:18:21;;;;;;;9.88;2.53;;;;;;;16.43;100.00;100938.16;2080567;28;20071;-74
2023/04/28 00:19:44;;;;;;;13.95;2.53;;;;;;;16.43;100.00;100942.63;2079003;28;20056;-74
2023/04/28 00:21:07;;;;;;;10.82;2.20;;;;;;;16.42;100.00;100943.50;2078836;28;20083;-74
2023/04/28 00:22:30;;;;;;;9.27;1.88;;;;;;;16.41;100.00;100939.09;2069691;28;20183;-74
2023/04/28 00:23:52;;;;;;;10.77;2.58;;;;;;;16.37;100.00;100943.53;2075871;28;20053;-74
2023/04/28 00:25:14;;;;;;;6.78;2.15;;;;;;;16.35;100.00;100938.22;2077905;28;20517;-74
2023/04/28 00:26:37;;;;;;;10.20;2.38;;;;;;;16.31;100.00;100932.91;2080700;28;20046;-74
2023/04/28 00:27:58;;;;;;;11.98;2.63;;;;;;;16.28;100.00;100946.22;2072434;28;20518;-74
2023/04/28 00:29:23;;;;;;;10.43;2.40;;;;;;;16.25;100.00;100932.94;2070694;28;20049;-75
2023/04/28 00:30:45;;;;;;;7.85;2.03;;;;;;;16.23;100.00;100937.38;2075848;28;20394;-74
2023/04/28 00:32:08;;;;;;;12.88;2.60;;;;;;;16.23;100.00;100940.06;2083895;28;20053;-74
2023/04/28 00:33:31;;;;;;;8.88;2.00;;;;;;;16.24;100.00;100939.16;2082114;28;20071;-73
2023/04/28 00:34:53;;;;;;;11.07;1.92;;;;;;;16.24;100.00;100939.16;2077431;28;20073;-74
2023/04/28 00:36:15;;;;;;;7.90;2.30;;;;;;;16.25;100.00;100940.94;2070019;28;20525;-74
2023/04/28 00:37:38;;;;;;;11.57;2.40;;;;;;;16.28;100.00;100940.91;2069622;28;20652;-74
2023/04/28 00:39:00;;;;;;;7.32;1.83;;;;;;;16.28;100.00;100933.81;2075719;28;20168;-74
2023/04/28 00:40:23;;;;;;;11.80;2.25;;;;;;;16.27;100.00;100936.50;2078142;28;20151;-74
2023/04/28 00:41:46;;;;;;;9.95;2.20;;;;;;;16.27;100.00;100941.81;2075090;28;20045;-74
2023/04/28 00:43:09;;;;;;;8.25;2.20;;;;;;;16.26;100.00;100935.63;2075413;28;20602;-74
2023/04/28 00:44:32;;;;;;;9.82;1.95;;;;;;;16.26;100.00;100945.38;2075666;28;20053;-74
2023/04/28 00:45:55;;;;;;;8.40;2.55;;;;;;;16.25;100.00;100948.94;2083561;28;20102;-74
2023/04/28 00:47:18;;;;;;;13.13;2.63;;;;;;;16.25;100.00;100949.81;2085888;28;20083;-74
2023/04/28 00:48:40;;;;;;;11.15;1.92;;;;;;;16.24;100.00;100949.81;2069714;28;20129;-74
2023/04/28 00:50:05;;;;;;;9.20;1.90;;;;;;;16.23;100.00;100951.59;2069722;28;20076;-74
2023/04/28 00:51:27;;;;;;;9.45;1.88;;;;;;;16.24;100.00;100944.50;2069721;28;20045;-74
2023/04/28 00:52:51;;;;;;;8.05;2.42;;;;;;;16.25;100.00;100932.94;2069751;28;20057;-74
2023/04/28 00:54:15;;;;;;;14.70;2.75;;;;;;;16.25;100.00;100951.59;2069771;28;20057;-75
2023/04/28 00:55:37;;;;;;;9.75;2.42;;;;;;;16.23;100.00;100945.38;2069349;28;20046;-74
2023/04/28 00:57:01;;;;;;;8.85;2.17;;;;;;;16.18;100.00;100944.53;2061593;28;20061;-73
2023/04/28 00:58:24;;;;;;;12.73;2.30;;;;;;;16.14;100.00;100950.75;2083331;28;20049;-74
2023/04/28 00:59:48;;;;;;;6.88;2.28;;;;;;;16.09;100.00;100948.09;2085795;28;20080;-74
2023/04/28 01:01:09;;;;;;;10.65;2.15;;;;;;;16.05;100.00;100942.81;2086302;28;20040;-74
2023/04/28 01:02:32;;;;;;;11.13;2.20;;;;;;;16.00;100.00;100947.25;2077152;28;20052;-74
2023/04/28 01:03:55;;;;;;;11.25;3.35;;;;;;;15.99;100.00;100945.47;2083113;28;20080;-75
2023/04/28 01:05:18;;;;;;;10.15;2.08;;;;;;;15.98;100.00;100957.03;2080292;28;20076;-74
2023/04/28 01:06:42;;;;;;;9.95;2.30;;;;;;;15.95;100.00;100955.25;2073162;28;20041;-75
2023/04/28 01:08:04;;;;;;;11.27;3.28;;;;;;;15.92;100.00;100945.50;2075721;28;20084;-74
2023/04/28 01:09:26;;;;;;;10.45;2.78;;;;;;;15.90;100.00;100952.59;2077631;28;20140;-74
2023/04/28 01:10:50;;;;;;;6.85;1.98;;;;;;;15.87;100.00;100949.97;2068969;28;20092;-74
2023/04/28 01:12:31;;;;;;;7.07;2.20;;;;;;;15.83;100.00;100952.63;2080108;28;20045;-74
2023/04/28 01:13:53;;;;;;;10.77;2.45;;;;;;;15.79;100.00;100954.44;2069805;28;20140;-73
2023/04/28 01:15:19;;;;;;;11.98;2.75;;;;;;;15.79;100.00;100953.53;2067735;28;20050;-74
2023/04/28 01:16:42;;;;;;;8.60;2.03;;;;;;;15.80;100.00;100958.88;2061267;28;20046;-75
2023/04/28 01:18:04;;;;;;;;;;;;;;;15.80;100.00;100961.53;2075864;28;20056;-74
2023/04/28 01:19:27;;;;;;;;;;;;;;;15.78;100.00;100957.09;2064327;28;19922;-74
2023/04/28 01:20:48;;;;;;;12.35;2.47;;;;;;;15.78;100.00;100957.97;2069380;28;20361;-74
2023/04/28 01:22:14;;;;;;;12.00;2.20;;;;;;;15.82;100.00;100956.16;2064147;28;20418;-74
2023/04/28 01:23:36;;;;;;;13.35;2.75;;;;;;;15.84;100.00;100946.41;2061429;28;20383;-74
2023/04/28 01:24:59;;;;;;;9.27;2.20;;;;;;;15.86;100.00;100949.97;2068821;28;20050;-73
2023/04/28 01:26:21;;;;;;;11.10;2.88;;;;;;;15.85;100.00;100957.06;2061559;28;20414;-74
2023/04/28 01:27:44;;;;;;;11.63;2.40;;;;;;;15.85;100.00;100959.72;2058807;28;20050;-73
2023/04/28 01:29:06;;;;;;;8.90;2.60;;;;;;;15.83;100.00;100957.94;2066790;28;20555;-74
2023/04/28 01:30:28;;;;;;;8.55;2.47;;;;;;;15.81;100.00;100957.09;2064007;28;20054;-74
2023/04/28 01:31:50;;;;;;;13.75;2.40;;;;;;;15.78;100.00;100960.63;2074701;28;20046;-74
2023/04/28 01:33:13;;;;;;;8.90;2.78;;;;;;;15.76;100.00;100961.50;2065389;28;20061;-74
2023/04/28 01:34:35;;;;;;;10.43;2.50;;;;;;;15.73;100.00;100958.88;2062648;28;20093;-74
2023/04/28 01:35:59;;;;;;;8.88;2.55;;;;;;;15.69;100.00;100962.41;2077745;28;20053;-74
2023/04/28 01:37:21;;;;;;;10.13;3.10;;;;;;;15.66;100.00;100950.03;2074743;28;20075;-74
2023/04/28 01:38:42;;;;;;;10.43;2.25;;;;;;;15.64;100.00;100954.44;2074956;28;20089;-74
2023/04/28 01:40:08;;;;;;;8.65;2.55;;;;;;;15.63;100.00;100954.44;2077268;28;20496;-74
2023/04/28 01:41:29;;;;;;;9.20;2.60;;;;;;;15.61;100.00;100954.47;2083695;28;20036;-73
2023/04/28 01:42:52;;;;;;;;;;;;;;;15.56;100.00;100944.72;2077985;28;20141;-74
2023/04/28 01:44:13;;;;;;;12.02;2.58;;;;;;;15.52;100.00;100952.72;2074645;28;19921;-74
2023/04/28 01:45:36;;;;;;;9.23;2.53;;;;;;;15.50;100.00;100948.22;2074676;28;20048;-74
2023/04/28 01:46:57;;;;;;;8.75;2.22;;;;;;;15.48;100.00;100955.34;2075053;28;20052;-74
2023/04/28 01:48:19;;;;;;;10.88;2.58;;;;;;;15.46;100.00;100959.78;2080110;28;20180;-74
2023/04/28 01:49:41;;;;;;;9.75;2.55;;;;;;;15.44;100.00;100964.19;2085597;28;20040;-73
2023/04/28 01:51:03;;;;;;;6.30;2.33;;;;;;;15.43;100.00;100951.78;2077488;28;20045;-74
2023/04/28 01:52:26;;;;;;;9.15;2.47;;;;;;;15.41;100.00;100961.56;2074619;28;20042;-74
2023/04/28 01:53:49;;;;;;;7.97;2.45;;;;;;;15.40;100.00;100963.34;2082086;28;20055;-74
2023/04/28 01:55:12;;;;;;;10.43;2.58;;;;;;;15.41;100.00;100969.53;2077368;28;20068;-74
2023/04/28 01:56:35;;;;;;;6.40;2.35;;;;;;;15.40;100.00;100966.00;2079967;28;20045;-74
2023/04/28 01:57:59;;;;;;;8.43;2.58;;;;;;;15.38;100.00;100973.09;2075245;28;20139;-74
2023/04/28 01:59:22;;;;;;;8.80;2.70;;;;;;;15.38;100.00;100969.53;2075229;28;20072;-74
2023/04/28 02:00:45;;;;;;;8.60;2.53;;;;;;;15.36;100.00;100969.53;2074869;28;20053;-74
2023/04/28 02:02:08;;;;;;;8.90;2.10;;;;;;;15.38;100.00;100980.16;2075016;28;20505;-74
2023/04/28 02:03:30;;;;;;;12.80;2.70;;;;;;;15.39;100.00;100969.53;2075663;28;20124;-74
2023/04/28 02:04:52;;;;;;;9.05;2.30;;;;;;;15.38;100.00;100967.75;2074413;28;20045;-74
2023/04/28 02:06:15;;;;;;;11.93;2.58;;;;;;;15.36;100.00;100972.19;2074783;28;20065;-74
2023/04/28 02:07:37;;;;;;;9.25;2.70;;;;;;;15.34;100.00;100975.75;2074969;28;20038;-74
2023/04/28 02:08:59;;;;;;;12.07;2.38;;;;;;;15.33;100.00;100973.97;2074866;28;20111;-74
2023/04/28 02:10:23;;;;;;;9.18;2.50;;;;;;;15.33;100.00;100971.31;2077398;28;20073;-74
2023/04/28 02:11:45;;;;;;;6.35;2.20;;;;;;;15.32;100.00;100978.41;2073184;28;20154;-74
2023/04/28 02:13:07;;;;;;;11.40;2.70;;;;;;;15.32;100.00;100967.78;2074521;28;20053;-74
2023/04/28 02:14:31;;;;;;;7.22;2.22;;;;;;;15.32;100.00;100957.13;2077297;28;20461;-74
2023/04/28 02:15:52;;;;;;;7.00;2.10;;;;;;;15.35;100.00;100974.88;2085403;28;20059;-74
2023/04/28 02:17:16;;;;;;;8.27;2.40;;;;;;;15.36;100.00;100971.31;2079818;28;20053;-74
2023/04/28 02:18:37;;;;;;;9.27;2.13;;;;;;;15.37;100.00;100984.59;2069434;28;20072;-74
2023/04/28 02:20:00;;;;;;;10.68;2.38;;;;;;;15.39;100.00;100977.53;2073952;28;20427;-74
2023/04/28 02:21:21;;;;;;;8.13;2.33;;;;;;;15.42;100.00;100974.88;2077065;28;20136;-74
2023/04/28 02:22:44;;;;;;;11.05;2.53;;;;;;;15.46;100.00;100970.41;2072426;28;20065;-74
2023/04/28 02:24:06;;;;;;;6.45;1.98;;;;;;;15.48;100.00;100973.97;2084535;28;20114;-74
2023/04/28 02:25:31;;;;;;;10.60;2.72;;;;;;;15.49;100.00;100981.06;2078976;28;20049;-74
2023/04/28 02:26:52;;;;;;;7.85;2.20;;;;;;;15.50;100.00;100969.50;2076519;28;20401;-74
2023/04/28 02:28:15;;;;;;;11.27;2.97;;;;;;;15.50;100.00;100972.19;2075879;28;20053;-74
2023/04/28 02:29:36;;;;;;;10.38;2.35;;;;;;;15.51;100.00;100964.19;2084567;28;20056;-74
2023/04/28 02:31:05;;;;;;;11.02;2.20;;;;;;;15.51;100.00;100974.84;2086166;28;20053;-74
2023/04/28 02:32:26;;;;;;;9.63;2.08;;;;;;;15.48;100.00;100973.97;2087906;28;20037;-74
2023/04/28 02:33:48;;;;;;;7.47;2.38;;;;;;;15.45;100.00;100976.63;2066722;28;20141;-74
2023/04/28 02:35:09;;;;;;;7.15;2.10;;;;;;;15.41;100.00;100983.72;2063887;28;20042;-74
2023/04/28 02:36:32;;;;;;;7.50;2.50;;;;;;;15.38;100.00;100978.41;2067938;28;20034;-74
2023/04/28 02:37:54;;;;;;;7.65;2.05;;;;;;;15.37;100.00;100973.97;2070971;28;20050;-74
2023/04/28 02:39:17;;;;;;;7.80;2.20;;;;;;;15.37;100.00;100970.41;2078873;28;20050;-74
2023/04/28 02:40:41;;;;;;;12.73;2.53;;;;;;;15.35;100.00;100966.91;2082565;28;20040;-74
2023/04/28 02:42:04;;;;;;;6.18;2.20;;;;;;;15.32;100.00;100973.09;2079204;28;20564;-74
2023/04/28 02:43:25;;;;;;;10.77;2.20;;;;;;;15.31;100.00;100976.63;2081532;28;20073;-74
2023/04/28 02:44:48;;;;;;;8.50;1.88;;;;;;;15.29;100.00;100978.44;2084043;28;20145;-73
2023/04/28 02:46:10;;;;;;;8.52;2.45;;;;;;;15.28;100.00;100974.00;2078816;28;20063;-74
2023/04/28 02:47:32;;;;;;;;;;;;;;;15.27;100.00;100979.28;2085198;28;20489;-74
2023/04/28 02:48:54;;;;;;;9.82;2.30;;;;;;;15.24;100.00;100987.25;2077741;28;19951;-74
2023/04/28 02:50:15;;;;;;;7.60;1.73;;;;;;;15.25;100.00;100983.72;2079009;28;20049;-74
2023/04/28 02:51:38;;;;;;;8.50;2.20;;;;;;;15.25;100.00;100987.28;2076176;28;20076;-74
2023/04/28 02:53:00;;;;;;;8.43;2.75;;;;;;;15.26;100.00;100990.81;2078741;28;20060;-75
2023/04/28 02:54:27;;;;;;;7.50;2.38;;;;;;;15.24;100.00;100990.81;2078710;28;20042;-74
2023/04/28 02:55:51;;;;;;;7.75;2.17;;;;;;;15.24;100.00;100997.91;2079258;28;20521;-73
2023/04/28 02:57:13;;;;;;;13.73;2.58;;;;;;;15.23;100.00;101001.47;2084295;28;20048;-74
2023/04/28 02:58:36;;;;;;;9.40;2.75;;;;;;;15.22;100.00;100995.25;2077913;28;20038;-74
2023/04/28 02:59:59;;;;;;;14.65;2.35;;;;;;;15.21;100.00;100984.63;2078654;28;20049;-74
2023/04/28 03:01:26;;;;;;;10.48;2.10;;;;;;;15.18;100.00;100996.13;2077191;28;20436;-74
2023/04/28 03:02:47;;;;;;;13.05;2.45;;;;;;;15.15;100.00;100997.03;2076163;28;20050;-74
2023/04/28 03:04:10;;;;;;;9.52;2.67;;;;;;;15.16;100.00;100993.47;2075991;28;20492;-74
2023/04/28 03:05:31;;;;;;;13.20;2.60;;;;;;;15.15;100.00;101002.34;2076061;28;20072;-74
2023/04/28 03:06:53;;;;;;;13.57;2.35;;;;;;;15.14;100.00;101005.00;2075930;28;20127;-74
2023/04/28 03:08:15;;;;;;;9.93;2.30;;;;;;;15.12;100.00;101002.34;2074726;28;20041;-74
2023/04/28 03:09:38;;;;;;;9.20;2.00;;;;;;;15.12;100.00;101010.31;2083906;28;20655;-73
2023/04/28 03:11:02;;;;;;;11.57;2.35;;;;;;;15.13;100.00;101011.22;2081083;28;20693;-74
2023/04/28 03:12:25;;;;;;;6.85;1.50;;;;;;;15.12;100.00;101010.31;2076500;28;20336;-74
2023/04/28 03:13:46;;;;;;;9.27;1.73;;;;;;;15.12;100.00;101010.31;2083875;28;20045;-74
2023/04/28 03:15:09;;;;;;;7.68;1.90;;;;;;;15.10;100.00;101014.72;2078572;28;20053;-74
2023/04/28 03:16:32;;;;;;;8.05;1.70;;;;;;;15.09;100.00;101018.31;2084523;28;20056;-74
2023/04/28 03:17:54;;;;;;;7.70;1.77;;;;;;;15.08;100.00;101021.84;2077854;28;20608;-74
2023/04/28 03:19:16;;;;;;;7.65;1.80;;;;;;;15.06;100.00;101005.00;2068085;28;20078;-74
2023/04/28 03:20:38;;;;;;;8.30;1.65;;;;;;;15.03;100.00;101006.78;2070061;28;20062;-74
2023/04/28 03:22:00;;;;;;;8.70;1.75;;;;;;;15.03;100.00;101010.28;2061846;28;20049;-74
2023/04/28 03:23:22;;;;;;;8.98;1.85;;;;;;;15.04;100.00;101013.84;2067712;28;20327;-74
2023/04/28 03:24:44;;;;;;;7.65;2.10;;;;;;;15.07;100.00;101019.19;2078191;28;20128;-74
2023/04/28 03:26:08;;;;;;;8.10;1.77;;;;;;;15.07;100.00;101006.78;2080730;28;20215;-73
2023/04/28 03:27:30;;;;;;;7.00;1.50;;;;;;;15.08;100.00;101013.88;2081403;28;20041;-74
2023/04/28 03:28:53;;;;;;;7.05;1.60;;;;;;;15.10;100.00;101022.72;2067620;28;20140;-74
2023/04/28 03:30:16;;;;;;;9.85;1.85;;;;;;;15.13;100.00;101009.44;2067529;28;20773;-74
2023/04/28 03:31:38;;;;;;;8.05;1.85;;;;;;;15.15;100.00;101010.34;2076264;28;20045;-74
2023/04/28 03:33:00;;;;;;;7.30;1.73;;;;;;;15.16;100.00;101030.69;2070037;28;20446;-74
2023/04/28 03:34:22;;;;;;;7.65;1.85;;;;;;;15.18;100.00;101019.19;2075822;28;20049;-74
2023/04/28 03:35:44;;;;;;;7.65;1.55;;;;;;;15.19;100.00;101018.28;2072714;28;20056;-74
2023/04/28 03:37:06;;;;;;;8.07;1.70;;;;;;;15.20;100.00;101020.06;2075196;28;20091;-74
2023/04/28 03:38:28;;;;;;;9.63;1.90;;;;;;;15.21;100.00;101025.41;2078661;28;20041;-73
2023/04/28 03:39:50;;;;;;;9.10;1.90;;;;;;;15.20;100.00;101025.41;2084007;28;20119;-73
2023/04/28 03:41:14;;;;;;;6.40;1.70;;;;;;;15.19;100.00;101023.63;2077394;28;20053;-74
2023/04/28 03:42:58;;;;;;;10.30;2.13;;;;;;;15.18;100.00;101027.16;2095580;28;20579;-74
2023/04/28 03:44:31;;;;;;;9.77;1.88;;;;;;;15.18;100.00;101027.16;2079590;28;20398;-73
2023/04/28 03:45:53;;;;;;;10.68;2.47;;;;;;;15.19;100.00;101011.22;2074994;28;20052;-74
2023/04/28 03:47:15;;;;;;;7.38;1.95;;;;;;;15.24;100.00;101021.84;2067305;28;20514;-74
2023/04/28 03:48:37;;;;;;;10.77;2.60;;;;;;;15.27;100.00;101028.06;2062264;28;20115;-74
2023/04/28 03:49:59;;;;;;;7.95;2.20;;;;;;;15.29;100.00;101020.97;2061882;28;20523;-74
2023/04/28 03:51:21;;;;;;;10.95;2.80;;;;;;;15.30;100.00;101019.19;2059428;28;20599;-74
2023/04/28 03:52:43;;;;;;;8.07;2.15;;;;;;;15.33;100.00;101035.16;2059279;28;20049;-74
2023/04/28 03:54:06;;;;;;;10.23;2.38;;;;;;;15.38;100.00;101030.72;2059491;28;20526;-74
2023/04/28 03:55:27;;;;;;;10.55;2.08;;;;;;;15.40;100.00;101035.16;2067507;28;20494;-73
2023/04/28 03:56:51;;;;;;;10.88;2.60;;;;;;;15.40;100.00;101040.50;2075717;28;20103;-73
2023/04/28 03:58:13;;;;;;;8.65;2.50;;;;;;;15.42;100.00;101021.88;2073068;28;20924;-73
2023/04/28 03:59:35;;;;;;;11.43;2.55;;;;;;;15.46;100.00;101035.16;2083646;28;20053;-74
2023/04/28 04:00:56;;;;;;;9.02;2.70;;;;;;;15.50;100.00;101039.59;2070617;28;20045;-74
2023/04/28 04:02:19;;;;;;;11.55;2.63;;;;;;;15.53;100.00;101044.06;2081316;28;20143;-74
2023/04/28 04:03:40;;;;;;;9.57;2.47;;;;;;;15.54;100.00;101036.09;2084632;28;20100;-73
2023/04/28 04:05:03;;;;;;;7.22;2.47;;;;;;;15.54;100.00;101045.84;2072351;28;20068;-74
2023/04/28 04:06:24;;;;;;;11.13;2.15;;;;;;;15.56;100.00;101049.38;2075700;28;20095;-74
2023/04/28 04:07:47;;;;;;;11.88;2.53;;;;;;;15.57;100.00;101056.47;2070076;28;20153;-74
2023/04/28 04:09:08;;;;;;;7.22;2.20;;;;;;;15.57;100.00;101043.16;2075774;28;20041;-74
2023/04/28 04:10:31;;;;;;;11.85;2.50;;;;;;;15.59;100.00;101054.72;2072615;28;20553;-74
2023/04/28 04:11:54;;;;;;;10.40;2.17;;;;;;;15.62;100.00;101049.38;2067519;28;20045;-74
2023/04/28 04:13:16;;;;;;;9.23;2.72;;;;;;;15.62;100.00;101056.50;2072050;28;20379;-73
2023/04/28 04:14:39;;;;;;;11.82;2.55;;;;;;;15.62;100.00;101060.00;2075354;28;20049;-74
2023/04/28 04:16:02;;;;;;;11.30;2.38;;;;;;;15.62;100.00;101044.03;2075743;28;20168;-74
2023/04/28 04:17:23;;;;;;;7.75;2.20;;;;;;;15.63;100.00;101053.81;2078351;28;20075;-74
2023/04/28 04:18:46;;;;;;;6.78;2.08;;;;;;;15.66;100.00;101059.16;2086268;28;20049;-73
2023/04/28 04:20:27;;;;;;;8.98;2.38;;;;;;;15.67;100.00;101060.03;2088902;28;20049;-74
2023/04/28 04:21:48;;;;;;;7.38;2.60;;;;;;;15.71;100.00;101068.00;2072478;28;20054;-73
2023/04/28 04:23:11;;;;;;;9.55;2.53;;;;;;;15.74;100.00;101065.34;2071441;28;20093;-73
2023/04/28 04:24:32;;;;;;;9.77;2.45;;;;;;;15.77;100.00;101070.66;2070020;28;20132;-74
2023/04/28 04:25:54;;;;;;;9.07;1.80;;;;;;;15.81;100.00;101063.56;2067259;28;20073;-74
2023/04/28 04:27:19;;;;;;;12.60;2.22;;;;;;;15.83;100.00;101068.00;2075293;28;20046;-74
2023/04/28 04:28:41;;;;;;;10.07;2.58;;;;;;;15.81;100.00;101069.78;2070134;28;20044;-74
2023/04/28 04:30:07;;;;;;;12.05;2.33;;;;;;;15.82;100.00;101087.50;2070347;28;20064;-74
2023/04/28 04:31:28;;;;;;;9.23;2.00;;;;;;;15.81;100.00;101071.56;2071806;28;20414;-74
2023/04/28 04:32:50;;;;;;;7.45;2.03;;;;;;;15.81;100.00;101087.53;2075117;28;20055;-74
2023/04/28 04:34:11;;;;;;;8.73;2.00;;;;;;;15.87;100.00;101088.41;2059420;28;20610;-74
2023/04/28 04:35:34;;;;;;;12.85;2.40;;;;;;;15.93;100.00;101087.53;2066958;28;20489;-73
2023/04/28 04:36:55;;;;;;;7.70;1.95;;;;;;;15.95;100.00;101086.59;2061852;28;20137;-74
2023/04/28 04:38:18;;;;;;;6.45;1.90;;;;;;;15.94;100.00;101083.97;2067370;28;20112;-74
2023/04/28 04:39:39;;;;;;;7.55;1.67;;;;;;;15.94;100.00;101092.84;2064132;28;20077;-74
2023/04/28 04:41:02;;;;;;;10.85;2.08;;;;;;;15.94;100.00;101084.88;2067109;28;20050;-79
2023/04/28 04:42:26;;;;;;;11.63;1.95;;;;;;;15.95;100.00;101099.94;2069845;28;20049;-74
2023/04/28 04:44:03;;;;;;;9.68;2.38;;;;;;;15.98;100.00;101103.47;2076649;28;20084;-73
2023/04/28 04:45:32;;;;;;;9.52;1.90;;;;;;;16.03;100.00;101096.38;2076215;28;20559;-74
2023/04/28 04:46:54;;;;;;;8.88;2.13;;;;;;;16.05;100.00;101110.59;2071354;28;20103;-74
2023/04/28 04:48:16;;;;;;;10.55;2.22;;;;;;;16.03;100.00;101099.03;2077255;28;20540;-74
2023/04/28 04:49:38;;;;;;;7.07;1.90;;;;;;;16.06;100.00;101101.72;2061390;28;20548;-74
2023/04/28 04:51:01;;;;;;;9.02;2.00;;;;;;;16.08;100.00;101099.94;2066962;28;20122;-74
2023/04/28 04:52:23;;;;;;;8.88;2.35;;;;;;;16.12;100.00;101105.25;2076442;28;20122;-74
2023/04/28 04:53:45;;;;;;;9.60;2.00;;;;;;;16.13;100.00;101103.47;2069624;28;20101;-73
2023/04/28 04:55:10;;;;;;;6.57;1.73;;;;;;;16.09;100.00;101113.22;2066062;28;20576;-74
2023/04/28 04:56:33;;;;;;;9.00;2.00;;;;;;;16.05;100.00;101110.59;2072058;28;20041;-74
2023/04/28 04:57:57;;;;;;;8.82;1.77;;;;;;;16.00;100.00;101107.94;2075756;28;20046;-74
2023/04/28 04:59:33;;;;;;;8.63;1.90;;;;;;;15.97;100.00;101117.69;2079079;28;20144;-74
2023/04/28 05:01:04;;;;;;;5.30;1.88;;;;;;;16.03;100.00;101101.69;2070520;28;20042;-74
2023/04/28 05:02:27;;;;;;;12.38;2.00;;;;;;;16.03;100.00;101105.25;2065625;28;20132;-74
2023/04/28 05:03:48;;;;;;;9.77;2.05;;;;;;;16.00;100.00;101107.03;2069530;28;20050;-74
2023/04/28 05:05:11;;;;;;;9.00;1.40;;;;;;;15.95;100.00;101110.56;2068956;28;20042;-74
2023/04/28 05:06:34;;;;;;;6.47;1.40;;;;;;;15.95;100.00;101110.56;2063228;28;20077;-74
2023/04/28 05:07:56;;;;;;;8.93;1.60;;;;;;;16.00;100.00;101112.38;2066960;28;20402;-74
2023/04/28 05:09:18;;;;;;;7.63;1.40;;;;;;;16.07;100.00;101114.13;2069136;28;20089;-74
2023/04/28 05:10:39;;;;;;;5.03;1.33;;;;;;;16.18;100.00;101109.66;2066893;28;20041;-74
2023/04/28 05:12:02;;;;;;;4.28;1.30;;;;;;;16.33;100.00;101120.31;2069424;28;20066;-74
2023/04/28 05:13:26;;;;;;;6.82;1.75;;;;;;;16.43;100.00;101103.38;2074857;28;20140;-74
2023/04/28 05:14:53;;;;;;;11.23;2.00;;;;;;;16.40;100.00;101126.50;2072203;28;20054;-74
2023/04/28 05:16:17;;;;;;;6.75;1.60;;;;;;;16.32;100.00;101124.75;2074582;28;20515;-74
2023/04/28 05:17:50;;;;;;;7.22;1.77;;;;;;;16.31;100.00;101112.31;2074916;28;20413;-74
2023/04/28 05:19:13;;;;;;;7.68;1.77;;;;;;;16.34;100.00;101132.75;2062879;28;20049;-74
2023/04/28 05:20:36;;;;;;;6.10;1.40;;;;;;;16.44;100.00;101133.59;2061561;28;20511;-73
2023/04/28 05:21:59;;;;;;;10.02;1.95;;;;;;;16.50;100.00;101129.13;2067016;28;20441;-74
2023/04/28 05:23:22;;;;;;;7.32;1.40;;;;;;;16.50;100.00;101117.59;2061287;28;20076;-74
2023/04/28 05:24:44;;;;;;;10.10;1.63;;;;;;;16.46;100.00;101119.38;2067045;28;20141;-74
2023/04/28 05:26:06;;;;;;;6.13;1.60;;;;;;;16.61;100.00;101127.34;2057827;28;20057;-74
2023/04/28 05:27:29;;;;;;;5.60;1.92;;;;;;;16.71;100.00;101125.56;2059888;28;20467;-74
2023/04/28 05:28:53;;;;;;;11.10;2.25;;;;;;;16.71;100.00;101126.44;2066677;28;20050;-74
2023/04/28 05:30:15;;;;;;;6.22;1.75;;;;;;;16.67;100.00;101126.47;2071616;28;20080;-74
2023/04/28 05:31:37;;;;;;;8.07;1.85;;;;;;;16.67;100.00;101130.00;2063451;28;20054;-74
2023/04/28 05:32:59;;;;;;;5.82;1.75;;;;;;;16.63;100.00;101127.34;2058782;28;20046;-74
2023/04/28 05:34:22;;;;;;;6.03;1.38;;;;;;;16.83;100.00;101132.63;2058509;28;20050;-74
2023/04/28 05:35:45;;;;;;;8.05;1.63;;;;;;;17.21;100.00;101130.63;2066838;28;20050;-74
2023/04/28 05:37:06;;;;;;;8.98;1.70;;;;;;;17.64;100.00;101130.41;2066306;28;20049;-74
2023/04/28 05:38:32;;;;;;;4.95;1.40;;;;;;;17.78;99.50;101134.75;2067296;28;20422;-74
2023/04/28 05:39:55;;;;;;;6.22;1.23;;;;;;;17.68;99.01;101135.72;2066967;28;20046;-74
2023/04/28 05:41:18;;;;;;;7.45;1.83;;;;;;;17.69;100.00;101132.16;2061083;28;20046;-74
2023/04/28 05:42:40;;;;;;;7.68;1.80;;;;;;;17.77;100.00;101148.13;2058757;28;20051;-74
2023/04/28 05:44:05;;;;;;;5.80;1.60;;;;;;;17.74;98.99;101145.44;2066399;28;20046;-74
2023/04/28 05:45:28;;;;;;;8.23;1.90;;;;;;;17.61;99.48;101144.66;2061529;28;20046;-74
2023/04/28 05:46:50;;;;;;;7.50;1.70;;;;;;;17.72;100.00;101142.78;2067063;28;20050;-73
2023/04/28 05:48:20;;;;;;;6.50;1.83;;;;;;;17.91;100.00;101141.78;2062004;28;20042;-74
2023/04/28 05:49:43;;;;;;;8.73;2.28;;;;;;;18.01;100.00;101141.66;2067013;28;20042;-74
2023/04/28 05:51:06;;;;;;;7.00;1.75;;;;;;;18.06;100.00;101148.75;2063548;28;20154;-74
2023/04/28 05:52:27;;;;;;;8.30;2.10;;;;;;;18.19;99.01;101133.47;2066918;28;20129;-74
2023/04/28 05:53:50;;;;;;;9.35;2.05;;;;;;;18.41;98.63;101143.06;2045137;28;20067;-74
2023/04/28 05:55:12;;;;;;;8.02;2.00;;;;;;;18.67;96.52;101146.38;2061350;28;20084;-74
2023/04/28 05:56:34;;;;;;;6.55;1.40;;;;;;;18.71;95.05;101133.84;2060865;28;20054;-74
2023/04/28 05:57:58;;;;;;;6.72;2.00;;;;;;;18.90;92.54;101122.03;2058652;28;20073;-74
2023/04/28 05:59:22;;;;;;;11.07;2.30;;;;;;;18.96;88.54;101129.09;2074691;28;20406;-74
2023/04/28 06:00:45;;;;;;;7.30;2.15;;;;;;;19.04;87.09;101148.59;2063718;28;20077;-74
2023/04/28 06:02:06;;;;;;;8.15;1.85;;;;;;;19.01;85.48;101145.97;2061293;28;20074;-74
2023/04/28 06:03:28;;;;;;;8.52;1.85;;;;;;;18.98;87.31;101143.31;2061045;28;20137;-74
2023/04/28 06:04:50;;;;;;;8.32;2.00;;;;;;;18.92;87.42;101130.91;2068929;28;20046;-74
2023/04/28 06:06:13;;;;;;;8.00;2.20;;;;;;;18.84;88.40;101135.47;2063943;28;20121;-74
2023/04/28 06:07:35;;;;;;;10.30;2.30;;;;;;;18.95;88.66;101144.25;2058556;28;20042;-74
2023/04/28 06:08:58;;;;;;;10.45;2.17;;;;;;;19.21;86.94;101143.03;2066940;28;20112;-74
2023/04/28 06:10:22;;;;;;;6.78;1.80;;;;;;;19.48;83.35;101135.53;2061495;28;20046;-74
2023/04/28 06:11:44;;;;;;;9.82;1.95;;;;;;;19.65;80.51;101137.94;2071195;28;20049;-74
2023/04/28 06:13:06;;;;;;;7.95;1.83;;;;;;;19.63;81.32;101131.72;2062191;28;20057;-74
2023/04/28 06:14:30;;;;;;;9.50;2.13;;;;;;;19.69;79.48;101146.84;2058987;28;20054;-74
2023/04/28 06:15:52;;;;;;;8.95;1.75;;;;;;;19.64;81.12;101148.66;2066483;28;20058;-73
2023/04/28 06:17:15;;;;;;;10.07;1.75;;;;;;;19.59;82.23;101123.75;2061355;28;20054;-74
2023/04/28 06:18:37;;;;;;;7.15;2.10;;;;;;;19.41;82.39;101144.53;2059649;28;20064;-74
2023/04/28 06:20:00;;;;;;;8.68;2.40;;;;;;;19.39;84.39;101134.72;2066232;28;20108;-74
2023/04/28 06:21:23;;;;;;;13.15;2.30;;;;;;;19.56;85.22;101147.94;2066548;28;20204;-74